sensor_id;sensor_type;location;lat;lon;timestamp;P1;durP1;ratioP1;P2;durP2;ratioP2
14470;SDS011;7321;50.802;4.336;2022-07-04T00:01:10;4.57;;;2.40;;
14470;SDS011;7321;50.802;4.336;2022-07-04T00:03:36;3.80;;;2.10;;
14470;SDS011;7321;50.802;4.336;2022-07-04T00:06:01;3.67;;;2.10;;
14470;SDS011;7321;50.802;4.336;2022-07-04T00:08:27;3.63;;;1.90;;
14470;SDS011;7321;50.802;4.336;2022-07-04T00:10:53;4.85;;;2.60;;
14470;SDS011;7321;50.802;4.336;2022-07-04T00:13:19;2.38;;;2.17;;
14470;SDS011;7321;50.802;4.336;2022-07-04T00:15:44;3.63;;;2.42;;
14470;SDS011;7321;50.802;4.336;2022-07-04T00:18:10;3.50;;;2.28;;
14470;SDS011;7321;50.802;4.336;2022-07-04T00:20:36;4.47;;;2.38;;
14470;SDS011;7321;50.802;4.336;2022-07-04T00:23:02;3.10;;;2.35;;
14470;SDS011;7321;50.802;4.336;2022-07-04T00:25:27;3.83;;;2.10;;
14470;SDS011;7321;50.802;4.336;2022-07-04T00:27:53;4.85;;;2.53;;
14470;SDS011;7321;50.802;4.336;2022-07-04T00:30:19;2.38;;;1.95;;
14470;SDS011;7321;50.802;4.336;2022-07-04T00:32:45;4.07;;;2.10;;
14470;SDS011;7321;50.802;4.336;2022-07-04T00:35:11;4.18;;;2.47;;
14470;SDS011;7321;50.802;4.336;2022-07-04T00:37:36;5.28;;;2.67;;
14470;SDS011;7321;50.802;4.336;2022-07-04T00:40:02;3.83;;;2.42;;
14470;SDS011;7321;50.802;4.336;2022-07-04T00:42:28;5.45;;;2.63;;
14470;SDS011;7321;50.802;4.336;2022-07-04T00:44:54;5.05;;;2.50;;
14470;SDS011;7321;50.802;4.336;2022-07-04T00:47:20;3.65;;;2.50;;
14470;SDS011;7321;50.802;4.336;2022-07-04T00:49:46;7.68;;;2.70;;
14470;SDS011;7321;50.802;4.336;2022-07-04T00:52:12;3.97;;;2.25;;
14470;SDS011;7321;50.802;4.336;2022-07-04T00:54:38;6.22;;;2.13;;
14470;SDS011;7321;50.802;4.336;2022-07-04T00:57:04;3.78;;;2.20;;
14470;SDS011;7321;50.802;4.336;2022-07-04T00:59:30;4.55;;;2.10;;
14470;SDS011;7321;50.802;4.336;2022-07-04T01:01:56;3.40;;;2.30;;
14470;SDS011;7321;50.802;4.336;2022-07-04T01:04:22;4.13;;;2.38;;
14470;SDS011;7321;50.802;4.336;2022-07-04T01:06:48;4.15;;;2.38;;
14470;SDS011;7321;50.802;4.336;2022-07-04T01:09:14;4.03;;;2.30;;
14470;SDS011;7321;50.802;4.336;2022-07-04T01:11:40;2.80;;;2.20;;
14470;SDS011;7321;50.802;4.336;2022-07-04T01:14:06;5.95;;;2.30;;
14470;SDS011;7321;50.802;4.336;2022-07-04T01:16:32;3.20;;;2.47;;
14470;SDS011;7321;50.802;4.336;2022-07-04T01:18:59;4.60;;;3.13;;
14470;SDS011;7321;50.802;4.336;2022-07-04T01:21:24;6.18;;;2.63;;
14470;SDS011;7321;50.802;4.336;2022-07-04T01:23:51;6.65;;;2.70;;
14470;SDS011;7321;50.802;4.336;2022-07-04T01:26:17;3.17;;;2.45;;
14470;SDS011;7321;50.802;4.336;2022-07-04T01:28:43;4.10;;;2.67;;
14470;SDS011;7321;50.802;4.336;2022-07-04T01:31:09;4.60;;;2.67;;
14470;SDS011;7321;50.802;4.336;2022-07-04T01:33:35;4.82;;;2.60;;
14470;SDS011;7321;50.802;4.336;2022-07-04T01:36:01;3.42;;;2.63;;
14470;SDS011;7321;50.802;4.336;2022-07-04T01:38:27;2.63;;;2.17;;
14470;SDS011;7321;50.802;4.336;2022-07-04T01:40:53;3.42;;;2.60;;
14470;SDS011;7321;50.802;4.336;2022-07-04T01:43:19;3.83;;;2.22;;
14470;SDS011;7321;50.802;4.336;2022-07-04T01:45:45;2.42;;;2.13;;
14470;SDS011;7321;50.802;4.336;2022-07-04T01:48:11;2.88;;;2.10;;
14470;SDS011;7321;50.802;4.336;2022-07-04T01:50:37;2.78;;;2.53;;
14470;SDS011;7321;50.802;4.336;2022-07-04T01:53:04;2.33;;;2.13;;
14470;SDS011;7321;50.802;4.336;2022-07-04T01:55:30;2.95;;;2.28;;
14470;SDS011;7321;50.802;4.336;2022-07-04T01:57:56;4.75;;;2.58;;
14470;SDS011;7321;50.802;4.336;2022-07-04T02:00:23;5.28;;;2.60;;
14470;SDS011;7321;50.802;4.336;2022-07-04T02:03:08;3.30;;;2.13;;
14470;SDS011;7321;50.802;4.336;2022-07-04T02:05:34;4.40;;;2.78;;
14470;SDS011;7321;50.802;4.336;2022-07-04T02:08:02;3.47;;;2.60;;
14470;SDS011;7321;50.802;4.336;2022-07-04T02:10:28;4.90;;;2.63;;
14470;SDS011;7321;50.802;4.336;2022-07-04T02:12:54;4.93;;;2.80;;
14470;SDS011;7321;50.802;4.336;2022-07-04T02:15:26;4.10;;;2.60;;
14470;SDS011;7321;50.802;4.336;2022-07-04T02:17:53;4.00;;;2.63;;
14470;SDS011;7321;50.802;4.336;2022-07-04T02:20:19;3.70;;;2.43;;
14470;SDS011;7321;50.802;4.336;2022-07-04T02:22:45;3.90;;;2.50;;
14470;SDS011;7321;50.802;4.336;2022-07-04T02:25:10;4.63;;;2.50;;
14470;SDS011;7321;50.802;4.336;2022-07-04T02:27:36;2.95;;;2.50;;
14470;SDS011;7321;50.802;4.336;2022-07-04T02:30:03;5.10;;;2.40;;
14470;SDS011;7321;50.802;4.336;2022-07-04T02:32:31;3.20;;;2.30;;
14470;SDS011;7321;50.802;4.336;2022-07-04T02:34:57;7.00;;;2.53;;
14470;SDS011;7321;50.802;4.336;2022-07-04T02:37:22;4.27;;;2.40;;
14470;SDS011;7321;50.802;4.336;2022-07-04T02:39:48;4.30;;;2.60;;
14470;SDS011;7321;50.802;4.336;2022-07-04T02:42:14;5.72;;;2.50;;
14470;SDS011;7321;50.802;4.336;2022-07-04T02:44:40;3.75;;;2.30;;
14470;SDS011;7321;50.802;4.336;2022-07-04T02:47:06;4.13;;;2.40;;
14470;SDS011;7321;50.802;4.336;2022-07-04T02:49:32;4.47;;;2.80;;
14470;SDS011;7321;50.802;4.336;2022-07-04T02:51:58;3.40;;;2.23;;
14470;SDS011;7321;50.802;4.336;2022-07-04T02:54:24;3.93;;;2.40;;
14470;SDS011;7321;50.802;4.336;2022-07-04T02:56:49;4.73;;;2.50;;
14470;SDS011;7321;50.802;4.336;2022-07-04T02:59:15;4.97;;;2.95;;
14470;SDS011;7321;50.802;4.336;2022-07-04T03:01:41;6.27;;;2.90;;
14470;SDS011;7321;50.802;4.336;2022-07-04T03:04:07;6.57;;;2.47;;
14470;SDS011;7321;50.802;4.336;2022-07-04T03:06:32;4.03;;;2.30;;
14470;SDS011;7321;50.802;4.336;2022-07-04T03:08:58;2.63;;;2.27;;
14470;SDS011;7321;50.802;4.336;2022-07-04T03:11:24;5.33;;;2.90;;
14470;SDS011;7321;50.802;4.336;2022-07-04T03:13:50;3.03;;;2.42;;
14470;SDS011;7321;50.802;4.336;2022-07-04T03:16:16;3.30;;;2.60;;
14470;SDS011;7321;50.802;4.336;2022-07-04T03:18:41;4.53;;;2.37;;
14470;SDS011;7321;50.802;4.336;2022-07-04T03:21:07;5.50;;;2.20;;
14470;SDS011;7321;50.802;4.336;2022-07-04T03:23:33;4.87;;;2.70;;
14470;SDS011;7321;50.802;4.336;2022-07-04T03:25:59;3.23;;;2.63;;
14470;SDS011;7321;50.802;4.336;2022-07-04T03:28:26;3.35;;;2.25;;
14470;SDS011;7321;50.802;4.336;2022-07-04T03:30:52;4.53;;;2.33;;
14470;SDS011;7321;50.802;4.336;2022-07-04T03:33:18;3.97;;;2.70;;
14470;SDS011;7321;50.802;4.336;2022-07-04T03:35:44;6.20;;;2.50;;
14470;SDS011;7321;50.802;4.336;2022-07-04T03:38:10;2.88;;;2.67;;
14470;SDS011;7321;50.802;4.336;2022-07-04T03:40:36;5.97;;;2.70;;
14470;SDS011;7321;50.802;4.336;2022-07-04T03:43:03;3.30;;;2.15;;
14470;SDS011;7321;50.802;4.336;2022-07-04T03:45:30;4.57;;;2.60;;
14470;SDS011;7321;50.802;4.336;2022-07-04T03:47:56;4.83;;;2.37;;
14470;SDS011;7321;50.802;4.336;2022-07-04T03:50:22;4.85;;;2.47;;
14470;SDS011;7321;50.802;4.336;2022-07-04T03:52:48;6.23;;;2.43;;
14470;SDS011;7321;50.802;4.336;2022-07-04T03:55:13;3.13;;;2.43;;
14470;SDS011;7321;50.802;4.336;2022-07-04T03:57:39;2.87;;;2.10;;
14470;SDS011;7321;50.802;4.336;2022-07-04T04:00:05;6.23;;;2.73;;
14470;SDS011;7321;50.802;4.336;2022-07-04T04:02:33;8.73;;;3.70;;
14470;SDS011;7321;50.802;4.336;2022-07-04T04:04:59;4.82;;;2.55;;
14470;SDS011;7321;50.802;4.336;2022-07-04T04:08:00;3.67;;;2.50;;
14470;SDS011;7321;50.802;4.336;2022-07-04T04:10:28;4.50;;;2.67;;
14470;SDS011;7321;50.802;4.336;2022-07-04T04:12:55;6.95;;;2.53;;
14470;SDS011;7321;50.802;4.336;2022-07-04T04:15:24;3.13;;;2.33;;
14470;SDS011;7321;50.802;4.336;2022-07-04T04:17:50;5.40;;;2.35;;
14470;SDS011;7321;50.802;4.336;2022-07-04T04:20:16;5.15;;;2.47;;
14470;SDS011;7321;50.802;4.336;2022-07-04T04:22:42;3.63;;;2.20;;
14470;SDS011;7321;50.802;4.336;2022-07-04T04:25:07;5.30;;;2.35;;
14470;SDS011;7321;50.802;4.336;2022-07-04T04:27:33;2.90;;;2.17;;
14470;SDS011;7321;50.802;4.336;2022-07-04T04:29:59;6.82;;;2.42;;
14470;SDS011;7321;50.802;4.336;2022-07-04T04:32:25;4.23;;;2.70;;
14470;SDS011;7321;50.802;4.336;2022-07-04T04:34:51;4.90;;;2.43;;
14470;SDS011;7321;50.802;4.336;2022-07-04T04:37:17;3.47;;;2.10;;
14470;SDS011;7321;50.802;4.336;2022-07-04T04:39:42;3.77;;;2.40;;
14470;SDS011;7321;50.802;4.336;2022-07-04T04:42:08;3.80;;;2.27;;
14470;SDS011;7321;50.802;4.336;2022-07-04T04:44:34;5.50;;;2.57;;
14470;SDS011;7321;50.802;4.336;2022-07-04T04:47:00;5.43;;;2.58;;
14470;SDS011;7321;50.802;4.336;2022-07-04T04:49:25;4.95;;;2.53;;
14470;SDS011;7321;50.802;4.336;2022-07-04T04:51:51;4.47;;;1.90;;
14470;SDS011;7321;50.802;4.336;2022-07-04T04:54:17;4.80;;;2.23;;
14470;SDS011;7321;50.802;4.336;2022-07-04T04:56:43;7.43;;;2.92;;
14470;SDS011;7321;50.802;4.336;2022-07-04T04:59:08;4.47;;;2.13;;
14470;SDS011;7321;50.802;4.336;2022-07-04T05:01:35;4.20;;;2.40;;
14470;SDS011;7321;50.802;4.336;2022-07-04T05:04:01;4.82;;;2.10;;
14470;SDS011;7321;50.802;4.336;2022-07-04T05:06:27;4.93;;;2.10;;
14470;SDS011;7321;50.802;4.336;2022-07-04T05:08:53;5.85;;;2.38;;
14470;SDS011;7321;50.802;4.336;2022-07-04T05:11:18;5.85;;;2.15;;
14470;SDS011;7321;50.802;4.336;2022-07-04T05:13:44;2.80;;;1.70;;
14470;SDS011;7321;50.802;4.336;2022-07-04T05:16:10;6.05;;;2.03;;
14470;SDS011;7321;50.802;4.336;2022-07-04T05:18:36;4.57;;;1.90;;
14470;SDS011;7321;50.802;4.336;2022-07-04T05:21:02;4.57;;;1.92;;
14470;SDS011;7321;50.802;4.336;2022-07-04T05:23:28;5.07;;;1.90;;
14470;SDS011;7321;50.802;4.336;2022-07-04T05:25:53;2.95;;;1.92;;
14470;SDS011;7321;50.802;4.336;2022-07-04T05:28:19;5.72;;;2.38;;
14470;SDS011;7321;50.802;4.336;2022-07-04T05:30:45;3.42;;;2.08;;
14470;SDS011;7321;50.802;4.336;2022-07-04T05:33:11;5.20;;;2.17;;
14470;SDS011;7321;50.802;4.336;2022-07-04T05:35:36;6.38;;;3.03;;
14470;SDS011;7321;50.802;4.336;2022-07-04T05:38:02;5.55;;;2.80;;
14470;SDS011;7321;50.802;4.336;2022-07-04T05:40:28;6.47;;;2.95;;
14470;SDS011;7321;50.802;4.336;2022-07-04T05:42:54;5.60;;;2.22;;
14470;SDS011;7321;50.802;4.336;2022-07-04T05:45:21;5.63;;;2.10;;
14470;SDS011;7321;50.802;4.336;2022-07-04T05:47:47;4.03;;;2.25;;
14470;SDS011;7321;50.802;4.336;2022-07-04T05:50:15;6.28;;;2.40;;
14470;SDS011;7321;50.802;4.336;2022-07-04T05:52:41;4.10;;;1.70;;
14470;SDS011;7321;50.802;4.336;2022-07-04T05:55:07;3.50;;;2.05;;
14470;SDS011;7321;50.802;4.336;2022-07-04T05:57:33;5.53;;;2.35;;
14470;SDS011;7321;50.802;4.336;2022-07-04T05:59:59;5.55;;;2.28;;
14470;SDS011;7321;50.802;4.336;2022-07-04T06:02:25;6.47;;;2.20;;
14470;SDS011;7321;50.802;4.336;2022-07-04T06:04:51;6.25;;;2.63;;
14470;SDS011;7321;50.802;4.336;2022-07-04T06:07:17;6.85;;;2.60;;
14470;SDS011;7321;50.802;4.336;2022-07-04T06:09:43;5.03;;;2.30;;
14470;SDS011;7321;50.802;4.336;2022-07-04T06:12:09;6.53;;;2.60;;
14470;SDS011;7321;50.802;4.336;2022-07-04T06:14:35;6.63;;;2.35;;
14470;SDS011;7321;50.802;4.336;2022-07-04T06:17:01;7.70;;;3.10;;
14470;SDS011;7321;50.802;4.336;2022-07-04T06:19:27;4.70;;;2.72;;
14470;SDS011;7321;50.802;4.336;2022-07-04T06:21:53;6.50;;;3.35;;
14470;SDS011;7321;50.802;4.336;2022-07-04T06:24:18;6.25;;;3.20;;
14470;SDS011;7321;50.802;4.336;2022-07-04T06:26:50;6.32;;;2.95;;
14470;SDS011;7321;50.802;4.336;2022-07-04T06:29:15;11.43;;;3.03;;
14470;SDS011;7321;50.802;4.336;2022-07-04T06:31:41;10.48;;;3.17;;
14470;SDS011;7321;50.802;4.336;2022-07-04T06:34:07;9.88;;;2.58;;
14470;SDS011;7321;50.802;4.336;2022-07-04T06:36:51;5.07;;;3.20;;
14470;SDS011;7321;50.802;4.336;2022-07-04T06:39:17;9.52;;;3.58;;
14470;SDS011;7321;50.802;4.336;2022-07-04T06:41:42;11.77;;;3.35;;
14470;SDS011;7321;50.802;4.336;2022-07-04T06:44:08;10.50;;;3.55;;
14470;SDS011;7321;50.802;4.336;2022-07-04T06:46:34;8.55;;;3.10;;
14470;SDS011;7321;50.802;4.336;2022-07-04T06:48:59;7.45;;;2.95;;
14470;SDS011;7321;50.802;4.336;2022-07-04T06:51:25;10.10;;;2.53;;
14470;SDS011;7321;50.802;4.336;2022-07-04T06:53:51;5.13;;;2.85;;
14470;SDS011;7321;50.802;4.336;2022-07-04T06:56:17;8.35;;;2.40;;
14470;SDS011;7321;50.802;4.336;2022-07-04T06:58:43;7.22;;;2.28;;
14470;SDS011;7321;50.802;4.336;2022-07-04T07:01:09;5.68;;;2.53;;
14470;SDS011;7321;50.802;4.336;2022-07-04T07:03:35;8.70;;;2.92;;
14470;SDS011;7321;50.802;4.336;2022-07-04T07:06:01;5.93;;;2.60;;
14470;SDS011;7321;50.802;4.336;2022-07-04T07:08:30;7.82;;;2.63;;
14470;SDS011;7321;50.802;4.336;2022-07-04T07:10:57;6.80;;;2.42;;
14470;SDS011;7321;50.802;4.336;2022-07-04T07:13:38;4.38;;;2.33;;
14470;SDS011;7321;50.802;4.336;2022-07-04T07:16:05;5.88;;;2.40;;
14470;SDS011;7321;50.802;4.336;2022-07-04T07:18:30;2.63;;;1.90;;
14470;SDS011;7321;50.802;4.336;2022-07-04T07:20:56;4.47;;;1.90;;
14470;SDS011;7321;50.802;4.336;2022-07-04T07:23:22;4.68;;;2.03;;
14470;SDS011;7321;50.802;4.336;2022-07-04T07:25:48;4.78;;;1.80;;
14470;SDS011;7321;50.802;4.336;2022-07-04T07:28:14;4.40;;;1.75;;
14470;SDS011;7321;50.802;4.336;2022-07-04T07:30:40;4.65;;;1.67;;
14470;SDS011;7321;50.802;4.336;2022-07-04T07:33:05;4.85;;;1.60;;
14470;SDS011;7321;50.802;4.336;2022-07-04T07:35:31;4.97;;;1.70;;
14470;SDS011;7321;50.802;4.336;2022-07-04T07:37:57;2.15;;;1.35;;
14470;SDS011;7321;50.802;4.336;2022-07-04T07:40:23;3.30;;;1.55;;
14470;SDS011;7321;50.802;4.336;2022-07-04T07:42:48;5.05;;;1.75;;
14470;SDS011;7321;50.802;4.336;2022-07-04T07:45:15;2.53;;;1.33;;
14470;SDS011;7321;50.802;4.336;2022-07-04T07:47:40;5.00;;;1.60;;
14470;SDS011;7321;50.802;4.336;2022-07-04T07:50:06;4.63;;;1.63;;
14470;SDS011;7321;50.802;4.336;2022-07-04T07:52:32;2.60;;;1.33;;
14470;SDS011;7321;50.802;4.336;2022-07-04T07:54:58;4.20;;;1.80;;
14470;SDS011;7321;50.802;4.336;2022-07-04T07:57:24;5.15;;;1.42;;
14470;SDS011;7321;50.802;4.336;2022-07-04T07:59:50;6.47;;;1.30;;
14470;SDS011;7321;50.802;4.336;2022-07-04T08:02:16;5.75;;;2.53;;
14470;SDS011;7321;50.802;4.336;2022-07-04T08:04:41;4.70;;;1.70;;
14470;SDS011;7321;50.802;4.336;2022-07-04T08:07:09;3.83;;;1.50;;
14470;SDS011;7321;50.802;4.336;2022-07-04T08:09:35;3.28;;;1.35;;
14470;SDS011;7321;50.802;4.336;2022-07-04T08:12:02;3.05;;;1.70;;
14470;SDS011;7321;50.802;4.336;2022-07-04T08:14:29;3.78;;;1.17;;
14470;SDS011;7321;50.802;4.336;2022-07-04T08:16:57;4.43;;;1.40;;
14470;SDS011;7321;50.802;4.336;2022-07-04T08:19:23;4.30;;;1.40;;
14470;SDS011;7321;50.802;4.336;2022-07-04T08:21:50;2.25;;;1.10;;
14470;SDS011;7321;50.802;4.336;2022-07-04T08:24:19;1.42;;;0.95;;
14470;SDS011;7321;50.802;4.336;2022-07-04T08:26:45;1.67;;;0.90;;
14470;SDS011;7321;50.802;4.336;2022-07-04T08:29:13;5.68;;;1.40;;
14470;SDS011;7321;50.802;4.336;2022-07-04T08:31:39;3.20;;;1.23;;
14470;SDS011;7321;50.802;4.336;2022-07-04T08:34:04;3.13;;;1.10;;
14470;SDS011;7321;50.802;4.336;2022-07-04T08:36:30;2.20;;;1.40;;
14470;SDS011;7321;50.802;4.336;2022-07-04T08:38:56;2.15;;;1.05;;
14470;SDS011;7321;50.802;4.336;2022-07-04T08:41:22;3.88;;;0.95;;
14470;SDS011;7321;50.802;4.336;2022-07-04T08:43:48;2.97;;;0.95;;
14470;SDS011;7321;50.802;4.336;2022-07-04T08:46:15;1.27;;;0.80;;
14470;SDS011;7321;50.802;4.336;2022-07-04T08:48:51;3.33;;;0.90;;
14470;SDS011;7321;50.802;4.336;2022-07-04T08:54:07;2.90;;;1.05;;
14470;SDS011;7321;50.802;4.336;2022-07-04T08:56:54;4.25;;;1.33;;
14470;SDS011;7321;50.802;4.336;2022-07-04T08:59:39;5.15;;;1.60;;
14470;SDS011;7321;50.802;4.336;2022-07-04T09:02:10;6.07;;;1.98;;
14470;SDS011;7321;50.802;4.336;2022-07-04T09:04:38;6.32;;;3.88;;
14470;SDS011;7321;50.802;4.336;2022-07-04T09:07:06;9.70;;;5.00;;
14470;SDS011;7321;50.802;4.336;2022-07-04T09:09:32;9.25;;;6.15;;
14470;SDS011;7321;50.802;4.336;2022-07-04T09:11:58;12.35;;;7.70;;
14470;SDS011;7321;50.802;4.336;2022-07-04T09:14:24;12.82;;;8.60;;
14470;SDS011;7321;50.802;4.336;2022-07-04T09:16:50;10.75;;;6.30;;
14470;SDS011;7321;50.802;4.336;2022-07-04T09:19:19;11.38;;;6.78;;
14470;SDS011;7321;50.802;4.336;2022-07-04T09:21:47;12.43;;;6.72;;
14470;SDS011;7321;50.802;4.336;2022-07-04T09:24:13;12.00;;;7.35;;
14470;SDS011;7321;50.802;4.336;2022-07-04T09:26:40;11.48;;;7.45;;
14470;SDS011;7321;50.802;4.336;2022-07-04T09:29:09;13.30;;;7.32;;
14470;SDS011;7321;50.802;4.336;2022-07-04T09:31:35;15.60;;;8.52;;
14470;SDS011;7321;50.802;4.336;2022-07-04T09:34:04;15.88;;;12.70;;
14470;SDS011;7321;50.802;4.336;2022-07-04T09:36:38;13.07;;;6.72;;
14470;SDS011;7321;50.802;4.336;2022-07-04T09:41:52;11.25;;;5.97;;
14470;SDS011;7321;50.802;4.336;2022-07-04T09:44:21;13.55;;;5.97;;
14470;SDS011;7321;50.802;4.336;2022-07-04T09:46:48;11.38;;;6.28;;
14470;SDS011;7321;50.802;4.336;2022-07-04T09:49:14;11.80;;;7.35;;
14470;SDS011;7321;50.802;4.336;2022-07-04T09:51:41;14.18;;;8.77;;
14470;SDS011;7321;50.802;4.336;2022-07-04T09:56:47;14.90;;;9.82;;
14470;SDS011;7321;50.802;4.336;2022-07-04T09:59:18;14.65;;;10.80;;
14470;SDS011;7321;50.802;4.336;2022-07-04T10:01:45;9.00;;;6.20;;
14470;SDS011;7321;50.802;4.336;2022-07-04T10:04:11;13.15;;;6.32;;
14470;SDS011;7321;50.802;4.336;2022-07-04T10:06:42;8.55;;;5.18;;
14470;SDS011;7321;50.802;4.336;2022-07-04T10:09:13;6.60;;;3.03;;
14470;SDS011;7321;50.802;4.336;2022-07-04T10:11:41;6.55;;;3.28;;
14470;SDS011;7321;50.802;4.336;2022-07-04T10:14:09;5.55;;;2.65;;
14470;SDS011;7321;50.802;4.336;2022-07-04T10:16:36;4.45;;;2.30;;
14470;SDS011;7321;50.802;4.336;2022-07-04T10:19:03;4.15;;;2.30;;
14470;SDS011;7321;50.802;4.336;2022-07-04T10:21:30;5.68;;;1.80;;
14470;SDS011;7321;50.802;4.336;2022-07-04T10:23:58;3.13;;;1.42;;
14470;SDS011;7321;50.802;4.336;2022-07-04T10:26:25;2.80;;;1.35;;
14470;SDS011;7321;50.802;4.336;2022-07-04T10:28:53;3.85;;;1.30;;
14470;SDS011;7321;50.802;4.336;2022-07-04T10:31:20;3.88;;;1.40;;
14470;SDS011;7321;50.802;4.336;2022-07-04T10:33:47;2.70;;;1.10;;
14470;SDS011;7321;50.802;4.336;2022-07-04T10:36:15;7.78;;;2.70;;
14470;SDS011;7321;50.802;4.336;2022-07-04T10:41:24;2.03;;;0.90;;
14470;SDS011;7321;50.802;4.336;2022-07-04T10:43:52;4.00;;;1.95;;
14470;SDS011;7321;50.802;4.336;2022-07-04T10:46:33;7.03;;;2.75;;
14470;SDS011;7321;50.802;4.336;2022-07-04T10:49:18;3.40;;;1.95;;
14470;SDS011;7321;50.802;4.336;2022-07-04T10:54:22;3.83;;;2.25;;
14470;SDS011;7321;50.802;4.336;2022-07-04T10:56:54;4.50;;;3.72;;
14470;SDS011;7321;50.802;4.336;2022-07-04T10:59:28;2.55;;;1.70;;
14470;SDS011;7321;50.802;4.336;2022-07-04T11:17:52;6.18;;;1.70;;
14470;SDS011;7321;50.802;4.336;2022-07-04T11:20:29;2.85;;;1.23;;
14470;SDS011;7321;50.802;4.336;2022-07-04T11:23:13;4.20;;;1.50;;
14470;SDS011;7321;50.802;4.336;2022-07-04T11:25:41;4.00;;;3.25;;
14470;SDS011;7321;50.802;4.336;2022-07-04T11:28:18;4.32;;;3.25;;
14470;SDS011;7321;50.802;4.336;2022-07-04T11:30:51;2.65;;;1.40;;
14470;SDS011;7321;50.802;4.336;2022-07-04T11:33:19;3.72;;;1.20;;
14470;SDS011;7321;50.802;4.336;2022-07-04T11:36:06;2.13;;;1.55;;
14470;SDS011;7321;50.802;4.336;2022-07-04T11:38:45;4.72;;;1.77;;
14470;SDS011;7321;50.802;4.336;2022-07-04T11:41:18;3.30;;;1.73;;
14470;SDS011;7321;50.802;4.336;2022-07-04T11:44:05;2.42;;;2.08;;
14470;SDS011;7321;50.802;4.336;2022-07-04T11:46:50;3.42;;;2.00;;
14470;SDS011;7321;50.802;4.336;2022-07-04T11:49:28;2.42;;;1.60;;
14470;SDS011;7321;50.802;4.336;2022-07-04T11:51:54;1.60;;;1.50;;
14470;SDS011;7321;50.802;4.336;2022-07-04T11:54:21;4.60;;;1.60;;
14470;SDS011;7321;50.802;4.336;2022-07-04T11:56:47;3.42;;;2.00;;
14470;SDS011;7321;50.802;4.336;2022-07-04T11:59:13;2.78;;;1.40;;
14470;SDS011;7321;50.802;4.336;2022-07-04T12:01:41;3.08;;;1.77;;
14470;SDS011;7321;50.802;4.336;2022-07-04T12:04:17;3.55;;;1.77;;
14470;SDS011;7321;50.802;4.336;2022-07-04T12:06:47;3.22;;;1.70;;
14470;SDS011;7321;50.802;4.336;2022-07-04T12:09:14;4.00;;;2.00;;
14470;SDS011;7321;50.802;4.336;2022-07-04T12:12:17;4.07;;;1.65;;
14470;SDS011;7321;50.802;4.336;2022-07-04T12:14:48;4.68;;;2.25;;
14470;SDS011;7321;50.802;4.336;2022-07-04T12:17:34;3.00;;;1.30;;
14470;SDS011;7321;50.802;4.336;2022-07-04T12:20:12;2.95;;;1.58;;
14470;SDS011;7321;50.802;4.336;2022-07-04T12:22:51;2.92;;;1.50;;
14470;SDS011;7321;50.802;4.336;2022-07-04T12:27:58;4.13;;;1.50;;
14470;SDS011;7321;50.802;4.336;2022-07-04T12:30:28;6.07;;;2.05;;
14470;SDS011;7321;50.802;4.336;2022-07-04T12:33:00;2.95;;;1.42;;
14470;SDS011;7321;50.802;4.336;2022-07-04T12:35:42;3.53;;;1.50;;
14470;SDS011;7321;50.802;4.336;2022-07-04T12:41:15;3.28;;;1.20;;
14470;SDS011;7321;50.802;4.336;2022-07-04T12:48:50;2.78;;;1.20;;
14470;SDS011;7321;50.802;4.336;2022-07-04T12:51:18;1.98;;;1.17;;
14470;SDS011;7321;50.802;4.336;2022-07-04T12:53:46;4.40;;;1.48;;
14470;SDS011;7321;50.802;4.336;2022-07-04T12:59:13;1.95;;;1.45;;
14470;SDS011;7321;50.802;4.336;2022-07-04T13:01:41;2.88;;;1.40;;
14470;SDS011;7321;50.802;4.336;2022-07-04T13:04:09;2.58;;;1.20;;
14470;SDS011;7321;50.802;4.336;2022-07-04T13:06:35;1.35;;;1.23;;
14470;SDS011;7321;50.802;4.336;2022-07-04T13:09:02;3.08;;;1.20;;
14470;SDS011;7321;50.802;4.336;2022-07-04T13:11:29;2.50;;;1.33;;
14470;SDS011;7321;50.802;4.336;2022-07-04T13:14:13;2.10;;;1.25;;
14470;SDS011;7321;50.802;4.336;2022-07-04T13:16:39;5.20;;;1.55;;
14470;SDS011;7321;50.802;4.336;2022-07-04T13:19:05;1.60;;;1.10;;
14470;SDS011;7321;50.802;4.336;2022-07-04T13:21:31;2.08;;;1.15;;
14470;SDS011;7321;50.802;4.336;2022-07-04T13:23:57;2.15;;;1.38;;
14470;SDS011;7321;50.802;4.336;2022-07-04T13:26:22;4.30;;;1.48;;
14470;SDS011;7321;50.802;4.336;2022-07-04T13:28:48;1.70;;;1.17;;
14470;SDS011;7321;50.802;4.336;2022-07-04T13:31:14;2.03;;;1.10;;
14470;SDS011;7321;50.802;4.336;2022-07-04T13:33:40;2.08;;;1.10;;
14470;SDS011;7321;50.802;4.336;2022-07-04T13:36:06;2.15;;;1.10;;
14470;SDS011;7321;50.802;4.336;2022-07-04T13:38:32;1.50;;;1.08;;
14470;SDS011;7321;50.802;4.336;2022-07-04T13:40:58;3.05;;;1.10;;
14470;SDS011;7321;50.802;4.336;2022-07-04T13:43:24;2.75;;;1.33;;
14470;SDS011;7321;50.802;4.336;2022-07-04T13:45:52;2.95;;;1.15;;
14470;SDS011;7321;50.802;4.336;2022-07-04T13:48:19;1.23;;;1.13;;
14470;SDS011;7321;50.802;4.336;2022-07-04T13:50:45;1.92;;;1.10;;
14470;SDS011;7321;50.802;4.336;2022-07-04T13:53:11;1.20;;;1.10;;
14470;SDS011;7321;50.802;4.336;2022-07-04T13:55:37;3.03;;;1.25;;
14470;SDS011;7321;50.802;4.336;2022-07-04T13:58:03;3.42;;;1.20;;
14470;SDS011;7321;50.802;4.336;2022-07-04T14:00:30;3.17;;;1.40;;
14470;SDS011;7321;50.802;4.336;2022-07-04T14:02:57;4.22;;;1.30;;
14470;SDS011;7321;50.802;4.336;2022-07-04T14:05:23;4.25;;;1.42;;
14470;SDS011;7321;50.802;4.336;2022-07-04T14:07:50;3.10;;;1.75;;
14470;SDS011;7321;50.802;4.336;2022-07-04T14:10:16;2.42;;;1.25;;
14470;SDS011;7321;50.802;4.336;2022-07-04T14:12:42;1.40;;;1.30;;
14470;SDS011;7321;50.802;4.336;2022-07-04T14:15:08;5.32;;;1.80;;
14470;SDS011;7321;50.802;4.336;2022-07-04T14:17:35;2.13;;;1.20;;
14470;SDS011;7321;50.802;4.336;2022-07-04T14:20:02;2.50;;;1.52;;
14470;SDS011;7321;50.802;4.336;2022-07-04T14:22:33;1.70;;;1.27;;
14470;SDS011;7321;50.802;4.336;2022-07-04T14:25:00;2.75;;;1.50;;
14470;SDS011;7321;50.802;4.336;2022-07-04T14:27:26;3.00;;;1.30;;
14470;SDS011;7321;50.802;4.336;2022-07-04T14:29:51;3.72;;;1.35;;
14470;SDS011;7321;50.802;4.336;2022-07-04T14:32:17;1.73;;;1.30;;
14470;SDS011;7321;50.802;4.336;2022-07-04T14:34:43;3.00;;;1.48;;
14470;SDS011;7321;50.802;4.336;2022-07-04T14:37:09;1.52;;;1.42;;
14470;SDS011;7321;50.802;4.336;2022-07-04T14:39:35;2.80;;;1.40;;
14470;SDS011;7321;50.802;4.336;2022-07-04T14:42:01;2.88;;;1.40;;
14470;SDS011;7321;50.802;4.336;2022-07-04T14:44:27;1.30;;;1.20;;
14470;SDS011;7321;50.802;4.336;2022-07-04T14:46:53;4.60;;;1.42;;
14470;SDS011;7321;50.802;4.336;2022-07-04T14:49:19;2.28;;;1.38;;
14470;SDS011;7321;50.802;4.336;2022-07-04T14:51:45;2.50;;;1.30;;
14470;SDS011;7321;50.802;4.336;2022-07-04T14:54:11;3.53;;;1.50;;
14470;SDS011;7321;50.802;4.336;2022-07-04T14:56:37;2.30;;;1.10;;
14470;SDS011;7321;50.802;4.336;2022-07-04T14:59:03;2.72;;;2.08;;
14470;SDS011;7321;50.802;4.336;2022-07-04T15:01:30;1.55;;;1.30;;
14470;SDS011;7321;50.802;4.336;2022-07-04T15:03:56;3.97;;;1.25;;
14470;SDS011;7321;50.802;4.336;2022-07-04T15:06:22;2.50;;;1.13;;
14470;SDS011;7321;50.802;4.336;2022-07-04T15:08:48;1.95;;;1.30;;
14470;SDS011;7321;50.802;4.336;2022-07-04T15:11:14;2.40;;;1.38;;
14470;SDS011;7321;50.802;4.336;2022-07-04T15:13:40;1.83;;;1.50;;
14470;SDS011;7321;50.802;4.336;2022-07-04T15:16:06;4.38;;;1.70;;
14470;SDS011;7321;50.802;4.336;2022-07-04T15:18:33;2.58;;;1.40;;
14470;SDS011;7321;50.802;4.336;2022-07-04T15:20:59;2.67;;;1.17;;
14470;SDS011;7321;50.802;4.336;2022-07-04T15:23:43;2.42;;;1.33;;
14470;SDS011;7321;50.802;4.336;2022-07-04T15:26:28;4.35;;;1.52;;
14470;SDS011;7321;50.802;4.336;2022-07-04T15:28:54;3.90;;;1.75;;
14470;SDS011;7321;50.802;4.336;2022-07-04T15:31:20;4.68;;;2.10;;
14470;SDS011;7321;50.802;4.336;2022-07-04T15:33:46;3.60;;;2.42;;
14470;SDS011;7321;50.802;4.336;2022-07-04T15:36:12;3.72;;;2.03;;
14470;SDS011;7321;50.802;4.336;2022-07-04T15:38:38;4.25;;;2.10;;
14470;SDS011;7321;50.802;4.336;2022-07-04T15:41:04;4.68;;;2.22;;
14470;SDS011;7321;50.802;4.336;2022-07-04T15:43:30;3.58;;;2.45;;
14470;SDS011;7321;50.802;4.336;2022-07-04T15:45:56;2.53;;;1.63;;